Time;durP1;ratioP1;P1;durP2;ratioP2;P2;SDS_P1;SDS_P2;PMS_P1;PMS_P2;Temp;Humidity;BMP_temperature;BMP_pressure;BME280_temperature;BME280_humidity;BME280_pressure;Samples;Min_cycle;Max_cycle;Signal;HPM_P1;HPM_P2
2022/11/13 00:01:51;;;;;;;18.27;6.47;;;;;;;;;;13078209;22;19998;-77
2022/11/13 00:06:51;;;;;;;13.43;7.00;;;;;;;;;;13077458;22;20397;-74
2022/11/13 00:11:51;;;;;;;12.43;6.47;;;;;;;;;;13078052;22;20017;-76
2022/11/13 00:16:51;;;;;;;14.43;7.13;;;;;;;;;;13052480;22;20454;-71
2022/11/13 00:21:56;;;;;;;13.90;6.88;;;;;;;;;;13078029;22;20018;-73
2022/11/13 00:26:56;;;;;;;11.27;6.05;;;;;;;;;;13078052;22;20447;-74
2022/11/13 00:31:56;;;;;;;14.45;6.50;;;;;;;;;;13078198;22;20002;-73
2022/11/13 00:36:57;;;;;;;19.13;7.18;;;;;;;;;;13131181;22;19999;-73
2022/11/13 00:41:57;;;;;;;14.20;7.55;;;;;;;;;;13078423;22;19994;-79
2022/11/13 00:46:57;;;;;;;14.93;8.63;;;;;;;;;;13077506;22;19990;-77
2022/11/13 00:51:59;;;;;;;17.02;7.75;;;;;;;;;;13076753;22;19991;-75
2022/11/13 00:56:59;;;;;;;13.80;8.23;;;;;;;;;;13113918;22;20026;-75
2022/11/13 01:02:00;;;;;;;12.77;7.57;;;;;;;;;;13126537;22;20011;-78
2022/11/13 01:07:00;;;;;;;16.92;8.10;;;;;;;;;;13077153;22;19999;-74
2022/11/13 01:12:00;;;;;;;16.60;9.27;;;;;;;;;;13115846;22;20014;-74
2022/11/13 01:17:00;;;;;;;15.88;7.75;;;;;;;;;;13077294;22;20002;-77
2022/11/13 01:22:01;;;;;;;12.10;7.38;;;;;;;;;;13078919;22;20576;-73
2022/11/13 01:27:01;;;;;;;17.45;8.57;;;;;;;;;;13080665;22;20040;-75
2022/11/13 01:32:01;;;;;;;17.02;8.82;;;;;;;;;;13080969;22;20384;-73
2022/11/13 01:37:01;;;;;;;21.25;8.73;;;;;;;;;;13102610;22;19999;-71
2022/11/13 01:42:02;;;;;;;18.23;8.57;;;;;;;;;;13097664;22;20002;-72
2022/11/13 01:47:02;;;;;;;17.60;9.23;;;;;;;;;;13086294;22;20071;-79
2022/11/13 01:52:05;;;;;;;14.60;9.17;;;;;;;;;;13084872;22;20073;-74
2022/11/13 01:57:06;;;;;;;17.20;9.93;;;;;;;;;;13080705;22;20268;-83
2022/11/13 02:02:06;;;;;;;15.13;8.37;;;;;;;;;;13080143;22;20332;-74
2022/11/13 02:07:08;;;;;;;19.48;9.88;;;;;;;;;;13079933;22;20066;-74
2022/11/13 02:12:12;;;;;;;17.52;8.10;;;;;;;;;;13053144;22;19998;-75
2022/11/13 02:17:24;;;;;;;16.25;7.95;;;;;;;;;;13054108;22;20385;-76
2022/11/13 02:22:36;;;;;;;15.63;7.40;;;;;;;;;;13087864;22;19987;-75
2022/11/13 02:27:38;;;;;;;19.20;10.10;;;;;;;;;;13107152;22;20343;-75
2022/11/13 02:32:49;;;;;;;13.85;7.97;;;;;;;;;;13080129;22;20312;-74
2022/11/13 02:37:50;;;;;;;16.30;8.73;;;;;;;;;;13079685;22;20055;-78
2022/11/13 02:42:50;;;;;;;17.88;9.02;;;;;;;;;;13079634;22;20037;-73
2022/11/13 02:47:50;;;;;;;16.25;8.88;;;;;;;;;;13127815;22;20062;-76
2022/11/13 02:52:51;;;;;;;15.82;8.02;;;;;;;;;;13079579;22;19991;-78
2022/11/13 02:57:51;;;;;;;16.88;9.00;;;;;;;;;;13078201;22;20007;-75
2022/11/13 03:02:52;;;;;;;14.88;8.50;;;;;;;;;;13079190;22;20025;-76
2022/11/13 03:07:53;;;;;;;17.15;8.88;;;;;;;;;;13128048;22;20330;-77
2022/11/13 03:12:54;;;;;;;16.25;9.05;;;;;;;;;;13113341;22;19990;-78
2022/11/13 03:17:54;;;;;;;17.10;9.50;;;;;;;;;;13100739;22;19986;-75
2022/11/13 03:22:54;;;;;;;15.23;9.30;;;;;;;;;;13078630;22;19987;-74
2022/11/13 03:27:54;;;;;;;17.98;8.38;;;;;;;;;;13078597;22;20033;-74
2022/11/13 03:32:55;;;;;;;20.43;10.03;;;;;;;;;;13127622;22;20011;-78
2022/11/13 03:37:55;;;;;;;17.17;9.05;;;;;;;;;;13078227;22;20408;-74
2022/11/13 03:42:56;;;;;;;16.33;9.20;;;;;;;;;;13078729;22;20037;-75
2022/11/13 03:47:56;;;;;;;20.90;9.55;;;;;;;;;;13127360;22;20043;-76
2022/11/13 03:52:56;;;;;;;18.13;9.77;;;;;;;;;;13078644;22;20006;-75
2022/11/13 03:57:56;;;;;;;22.98;9.35;;;;;;;;;;13077403;22;20053;-74
2022/11/13 04:02:57;;;;;;;17.85;9.32;;;;;;;;;;13087233;22;20086;-73
2022/11/13 04:07:57;;;;;;;13.77;8.55;;;;;;;;;;13085852;22;19995;-75
2022/11/13 04:12:57;;;;;;;15.65;9.27;;;;;;;;;;13087739;22;20144;-75
2022/11/13 04:17:57;;;;;;;16.95;9.02;;;;;;;;;;13141591;22;20030;-76
2022/11/13 04:22:58;;;;;;;18.40;9.38;;;;;;;;;;13077848;22;20043;-74
2022/11/13 04:27:58;;;;;;;21.48;10.77;;;;;;;;;;13077723;22;19997;-72
2022/11/13 04:32:58;;;;;;;19.85;10.98;;;;;;;;;;13128846;22;20047;-75
2022/11/13 04:37:58;;;;;;;23.08;12.10;;;;;;;;;;13052333;22;20473;-74
2022/11/13 04:42:59;;;;;;;28.77;12.10;;;;;;;;;;13078174;22;20029;-82
2022/11/13 04:47:59;;;;;;;25.50;12.50;;;;;;;;;;13077918;22;20430;-74
2022/11/13 04:52:59;;;;;;;28.53;14.13;;;;;;;;;;13077596;22;19982;-74
2022/11/13 04:57:59;;;;;;;29.67;14.20;;;;;;;;;;13055942;22;20684;-74
2022/11/13 05:03:00;;;;;;;25.40;13.13;;;;;;;;;;13080993;22;19991;-74
2022/11/13 05:08:00;;;;;;;30.35;13.43;;;;;;;;;;13126413;22;20060;-78
2022/11/13 05:13:01;;;;;;;28.40;13.50;;;;;;;;;;13080825;22;20381;-76
2022/11/13 05:18:01;;;;;;;29.98;13.55;;;;;;;;;;13080671;22;19991;-73
2022/11/13 05:23:01;;;;;;;25.95;14.27;;;;;;;;;;13081350;22;20039;-75
2022/11/13 05:28:02;;;;;;;29.97;15.20;;;;;;;;;;13102477;22;19993;-81
2022/11/13 05:33:02;;;;;;;26.70;14.63;;;;;;;;;;13080971;22;19997;-76
2022/11/13 05:38:02;;;;;;;32.17;15.38;;;;;;;;;;13080095;22;20014;-74
2022/11/13 05:43:02;;;;;;;28.63;14.65;;;;;;;;;;13080084;22;20036;-79
2022/11/13 05:48:03;;;;;;;31.23;14.88;;;;;;;;;;13081180;22;19994;-75
2022/11/13 05:53:03;;;;;;;28.30;13.23;;;;;;;;;;13129089;22;20066;-75
2022/11/13 05:58:03;;;;;;;28.30;12.87;;;;;;;;;;13111838;22;20053;-73
2022/11/13 06:03:03;;;;;;;27.02;13.98;;;;;;;;;;13079867;22;20033;-76
2022/11/13 06:08:04;;;;;;;28.88;15.20;;;;;;;;;;13079556;22;19995;-74
2022/11/13 06:13:04;;;;;;;30.40;14.55;;;;;;;;;;13079393;22;19994;-79
2022/11/13 06:18:04;;;;;;;22.45;12.50;;;;;;;;;;13079012;22;19990;-73
2022/11/13 06:23:04;;;;;;;22.13;11.52;;;;;;;;;;13079480;22;19987;-74
2022/11/13 06:28:05;;;;;;;30.00;14.38;;;;;;;;;;13078841;22;20026;-74
2022/11/13 06:33:05;;;;;;;30.60;14.57;;;;;;;;;;13125398;22;19983;-73
2022/11/13 06:38:05;;;;;;;30.42;13.10;;;;;;;;;;13110845;22;20217;-79
2022/11/13 06:43:05;;;;;;;26.00;13.80;;;;;;;;;;13137994;22;20424;-76
2022/11/13 06:48:06;;;;;;;27.85;12.32;;;;;;;;;;13136026;22;19993;-80
2022/11/13 06:53:06;;;;;;;27.25;13.73;;;;;;;;;;13132696;22;19991;-74
2022/11/13 06:58:07;;;;;;;28.23;14.85;;;;;;;;;;13111123;22;20011;-72
2022/11/13 07:03:14;;;;;;;25.92;14.38;;;;;;;;;;13052551;22;20001;-73
2022/11/13 07:08:16;;;;;;;27.15;14.02;;;;;;;;;;13078638;22;20077;-75
2022/11/13 07:13:16;;;;;;;31.70;15.18;;;;;;;;;;13078283;22;19999;-76
2022/11/13 07:18:17;;;;;;;26.08;13.30;;;;;;;;;;13079193;22;20033;-73
2022/11/13 07:23:17;;;;;;;24.67;13.32;;;;;;;;;;13050763;22;20355;-74
2022/11/13 07:28:17;;;;;;;26.80;14.27;;;;;;;;;;13076527;22;19994;-77
2022/11/13 07:33:17;;;;;;;30.13;14.95;;;;;;;;;;13077266;22;20391;-79
2022/11/13 07:38:18;;;;;;;35.28;14.88;;;;;;;;;;13126281;22;19995;-75
2022/11/13 07:43:18;;;;;;;33.30;14.02;;;;;;;;;;13076019;22;20445;-75
2022/11/13 07:48:19;;;;;;;30.43;15.00;;;;;;;;;;13076878;22;20013;-73
2022/11/13 07:53:20;;;;;;;32.45;15.27;;;;;;;;;;13125288;22;20082;-80
2022/11/13 07:58:21;;;;;;;30.15;15.02;;;;;;;;;;13075841;22;20537;-72
2022/11/13 08:03:21;;;;;;;27.73;13.93;;;;;;;;;;13076772;22;20065;-74
2022/11/13 08:08:22;;;;;;;28.45;14.52;;;;;;;;;;13076900;22;20493;-77
2022/11/13 08:13:23;;;;;;;29.13;15.30;;;;;;;;;;13075782;22;19995;-73
2022/11/13 08:18:23;;;;;;;33.08;15.65;;;;;;;;;;13076497;22;19987;-79
2022/11/13 08:23:23;;;;;;;30.45;17.88;;;;;;;;;;13075050;22;20448;-74
2022/11/13 08:28:24;;;;;;;29.52;16.98;;;;;;;;;;13072587;22;20047;-74
2022/11/13 08:33:24;;;;;;;28.67;14.98;;;;;;;;;;13077176;22;19999;-73
2022/11/13 08:38:24;;;;;;;34.97;17.35;;;;;;;;;;13078078;22;20001;-75
2022/11/13 08:43:25;;;;;;;28.43;15.80;;;;;;;;;;13126282;22;20770;-78
2022/11/13 08:48:25;;;;;;;36.60;18.57;;;;;;;;;;13076581;22;20510;-73
2022/11/13 08:53:25;;;;;;;30.02;14.68;;;;;;;;;;13076637;22;20002;-77
2022/11/13 08:58:25;;;;;;;30.98;16.20;;;;;;;;;;13080574;22;20371;-78
2022/11/13 09:03:26;;;;;;;32.53;17.88;;;;;;;;;;13083891;22;20022;-72
2022/11/13 09:08:28;;;;;;;34.92;16.90;;;;;;;;;;13154724;22;19995;-71
2022/11/13 09:13:29;;;;;;;28.95;16.55;;;;;;;;;;13106490;22;20015;-74
2022/11/13 09:18:30;;;;;;;34.40;16.30;;;;;;;;;;13095192;22;19989;-74
2022/11/13 09:23:30;;;;;;;34.30;17.63;;;;;;;;;;13083591;22;19998;-74
2022/11/13 09:28:31;;;;;;;33.75;17.95;;;;;;;;;;13127694;22;19991;-75
2022/11/13 09:33:31;;;;;;;32.58;16.58;;;;;;;;;;13053241;22;20078;-76
2022/11/13 09:38:31;;;;;;;35.67;19.23;;;;;;;;;;13128095;22;20403;-78
2022/11/13 09:43:47;;;;;;;32.55;17.10;;;;;;;;;;13078165;22;19998;-76
2022/11/13 09:48:50;;;;;;;33.25;18.55;;;;;;;;;;13077907;22;20422;-73
2022/11/13 09:53:51;;;;;;;38.40;17.58;;;;;;;;;;13052629;22;20020;-79
2022/11/13 09:59:10;;;;;;;36.57;17.63;;;;;;;;;;13081288;22;20014;-73
2022/11/13 10:04:11;;;;;;;34.80;17.70;;;;;;;;;;13084710;22;19991;-76
2022/11/13 10:09:28;;;;;;;33.08;16.73;;;;;;;;;;13080488;22;20017;-74
2022/11/13 10:14:33;;;;;;;26.65;15.73;;;;;;;;;;13053557;22;20003;-74
2022/11/13 10:19:33;;;;;;;30.27;17.63;;;;;;;;;;13127224;22;19991;-73
2022/11/13 10:24:44;;;;;;;26.42;15.45;;;;;;;;;;13129030;22;20406;-76
2022/11/13 10:29:45;;;;;;;27.13;15.63;;;;;;;;;;13052194;22;20027;-75
2022/11/13 10:34:48;;;;;;;28.43;15.23;;;;;;;;;;13077314;22;19991;-74
2022/11/13 10:39:48;;;;;;;31.55;16.75;;;;;;;;;;13127175;22;19987;-74
2022/11/13 10:44:56;;;;;;;28.48;15.73;;;;;;;;;;13078809;22;20165;-75
2022/11/13 10:50:07;;;;;;;33.13;16.85;;;;;;;;;;13077630;22;20002;-75
2022/11/13 10:55:21;;;;;;;31.48;16.50;;;;;;;;;;13077554;22;20023;-76
2022/11/13 11:00:32;;;;;;;29.30;15.48;;;;;;;;;;13127141;22;20014;-74
2022/11/13 11:05:33;;;;;;;26.67;15.52;;;;;;;;;;13077343;22;19995;-74
2022/11/13 11:10:34;;;;;;;32.70;17.67;;;;;;;;;;13127620;22;20334;-76
2022/11/13 11:15:47;;;;;;;33.72;16.08;;;;;;;;;;13076381;22;19999;-75
2022/11/13 11:20:58;;;;;;;30.27;16.33;;;;;;;;;;13076668;22;20472;-79
2022/11/13 11:25:59;;;;;;;33.60;17.65;;;;;;;;;;13076583;22;20374;-75
2022/11/13 11:31:05;;;;;;;30.05;16.05;;;;;;;;;;13077582;22;20022;-78
2022/11/13 11:36:24;;;;;;;31.40;15.82;;;;;;;;;;13124818;22;20090;-75
2022/11/13 11:41:50;;;;;;;25.63;13.88;;;;;;;;;;13076549;22;20483;-75
2022/11/13 11:46:51;;;;;;;31.02;16.33;;;;;;;;;;13069679;22;19995;-74
2022/11/13 11:51:51;;;;;;;26.60;16.35;;;;;;;;;;13083596;22;19991;-74
2022/11/13 11:56:53;;;;;;;31.20;16.70;;;;;;;;;;13084269;22;20423;-75
2022/11/13 12:02:08;;;;;;;30.92;16.83;;;;;;;;;;13088742;22;20010;-75
2022/11/13 12:07:29;;;;;;;34.55;17.13;;;;;;;;;;13081035;22;19995;-73
2022/11/13 12:12:33;;;;;;;30.90;16.90;;;;;;;;;;13081377;22;19995;-73
2022/11/13 12:17:33;;;;;;;32.55;16.60;;;;;;;;;;13077219;22;20002;-75
2022/11/13 12:22:47;;;;;;;30.60;16.50;;;;;;;;;;13076699;22;19991;-73
2022/11/13 12:28:03;;;;;;;27.42;14.63;;;;;;;;;;13076925;22;20065;-73
2022/11/13 12:33:18;;;;;;;29.92;15.40;;;;;;;;;;13076651;22;19991;-74
2022/11/13 12:38:24;;;;;;;29.95;15.70;;;;;;;;;;13126024;22;19994;-75
2022/11/13 12:43:41;;;;;;;31.05;15.48;;;;;;;;;;13051578;22;19995;-74
2022/11/13 12:48:45;;;;;;;29.60;15.68;;;;;;;;;;13076953;22;20006;-72
2022/11/13 12:53:53;;;;;;;33.58;16.38;;;;;;;;;;13071911;22;20033;-76
2022/11/13 12:58:58;;;;;;;27.63;14.60;;;;;;;;;;13076884;22;20095;-74
2022/11/13 13:04:26;;;;;;;26.98;13.73;;;;;;;;;;13075818;22;20010;-74
2022/11/13 13:09:45;;;;;;;26.08;14.10;;;;;;;;;;13125533;22;20434;-75
2022/11/13 13:15:15;;;;;;;27.83;14.05;;;;;;;;;;13076284;22;20003;-76
2022/11/13 13:20:15;;;;;;;24.05;13.38;;;;;;;;;;12971436;22;20382;-76
2022/11/13 13:25:30;;;;;;;20.70;13.13;;;;;;;;;;13079623;22;19994;-75
2022/11/13 13:30:34;;;;;;;27.38;14.60;;;;;;;;;;13079642;22;20002;-74
2022/11/13 13:35:41;;;;;;;31.65;12.68;;;;;;;;;;13084719;22;20079;-74
2022/11/13 13:41:08;;;;;;;26.17;13.48;;;;;;;;;;13079317;22;19987;-74
2022/11/13 13:46:09;;;;;;;31.30;15.38;;;;;;;;;;13079829;22;19999;-75
2022/11/13 13:51:18;;;;;;;30.38;15.30;;;;;;;;;;13079133;22;20001;-75
2022/11/13 13:56:19;;;;;;;29.42;14.90;;;;;;;;;;13079388;22;20085;-75
2022/11/13 14:01:28;;;;;;;29.25;14.25;;;;;;;;;;13079680;22;20063;-73
2022/11/13 14:06:28;;;;;;;29.85;16.17;;;;;;;;;;13079261;22;20914;-73
2022/11/13 14:11:29;;;;;;;29.60;14.85;;;;;;;;;;13078850;22;20031;-73
2022/11/13 14:16:29;;;;;;;28.08;16.02;;;;;;;;;;13129256;22;20022;-73
2022/11/13 14:21:29;;;;;;;33.40;17.05;;;;;;;;;;13078971;22;19994;-74
2022/11/13 14:26:30;;;;;;;32.90;16.93;;;;;;;;;;13078054;22;19991;-75
2022/11/13 14:31:32;;;;;;;35.83;16.98;;;;;;;;;;13078946;22;20352;-73
2022/11/13 14:36:34;;;;;;;35.78;18.95;;;;;;;;;;13127956;22;20053;-72
2022/11/13 14:41:34;;;;;;;41.35;21.27;;;;;;;;;;13077974;22;20069;-73
2022/11/13 14:46:35;;;;;;;41.83;19.05;;;;;;;;;;13081494;22;20489;-74
2022/11/13 14:51:36;;;;;;;35.20;18.00;;;;;;;;;;13139780;22;20030;-78
2022/11/13 14:56:39;;;;;;;42.58;20.75;;;;;;;;;;13085352;22;20097;-74
2022/11/13 15:01:40;;;;;;;39.72;19.92;;;;;;;;;;13114333;22;19995;-74
2022/11/13 15:06:40;;;;;;;42.70;21.10;;;;;;;;;;13128722;22;19995;-73
2022/11/13 15:11:42;;;;;;;37.08;20.27;;;;;;;;;;13074873;22;20240;-74
2022/11/13 15:16:43;;;;;;;42.42;19.42;;;;;;;;;;13076443;22;20052;-74
2022/11/13 15:21:44;;;;;;;43.42;21.60;;;;;;;;;;13125393;22;20099;-75
2022/11/13 15:26:44;;;;;;;42.60;20.67;;;;;;;;;;13075950;22;20002;-75
2022/11/13 15:31:45;;;;;;;45.95;22.10;;;;;;;;;;13076286;22;20075;-75
2022/11/13 15:36:46;;;;;;;44.08;22.83;;;;;;;;;;13125140;22;19998;-75
2022/11/13 15:41:46;;;;;;;48.75;23.63;;;;;;;;;;13074952;22;20079;-75
2022/11/13 15:46:46;;;;;;;48.60;23.07;;;;;;;;;;13125081;22;19987;-75
2022/11/13 15:51:47;;;;;;;53.20;25.00;;;;;;;;;;13113262;22;20014;-75
2022/11/13 15:56:47;;;;;;;59.80;29.30;;;;;;;;;;13112224;22;20011;-75
2022/11/13 16:01:48;;;;;;;65.10;28.85;;;;;;;;;;13124972;22;19991;-74
2022/11/13 16:06:49;;;;;;;69.90;30.77;;;;;;;;;;13125626;22;19995;-74
2022/11/13 16:11:49;;;;;;;62.80;28.20;;;;;;;;;;13124287;22;20346;-73
2022/11/13 16:16:51;;;;;;;63.50;28.60;;;;;;;;;;13076082;22;19995;-74
2022/11/13 16:21:52;;;;;;;79.28;32.50;;;;;;;;;;13050427;22;19983;-75
2022/11/13 16:26:54;;;;;;;66.13;31.45;;;;;;;;;;13074937;22;20002;-73
2022/11/13 16:31:56;;;;;;;70.03;31.35;;;;;;;;;;13096366;22;19998;-74
2022/11/13 16:36:56;;;;;;;68.10;30.17;;;;;;;;;;13123784;22;20441;-75
2022/11/13 16:41:57;;;;;;;62.47;28.40;;;;;;;;;;13074816;22;20010;-74
2022/11/13 16:46:57;;;;;;;67.20;31.95;;;;;;;;;;13124999;22;20457;-74
2022/11/13 16:51:58;;;;;;;72.20;30.92;;;;;;;;;;13077889;22;19991;-74
2022/11/13 16:56:59;;;;;;;61.92;29.52;;;;;;;;;;13078406;22;20142;-73
2022/11/13 17:01:59;;;;;;;56.95;26.95;;;;;;;;;;13053355;22;20086;-74
2022/11/13 17:06:59;;;;;;;53.80;24.83;;;;;;;;;;13078914;22;20427;-73
2022/11/13 17:11:59;;;;;;;57.72;24.55;;;;;;;;;;13078788;22;20492;-74
2022/11/13 17:17:00;;;;;;;52.25;23.60;;;;;;;;;;13093457;22;20034;-73
2022/11/13 17:22:01;;;;;;;51.50;22.42;;;;;;;;;;13092219;22;19991;-74
2022/11/13 17:27:01;;;;;;;56.50;23.38;;;;;;;;;;13140896;22;19991;-73
2022/11/13 17:32:01;;;;;;;54.70;22.88;;;;;;;;;;13089596;22;19987;-74
2022/11/13 17:37:01;;;;;;;51.50;22.30;;;;;;;;;;13080351;22;20429;-76
2022/11/13 17:42:02;;;;;;;51.90;24.05;;;;;;;;;;13114954;22;20021;-75
2022/11/13 17:47:02;;;;;;;53.17;22.90;;;;;;;;;;13078363;22;20069;-74
2022/11/13 17:52:02;;;;;;;53.70;24.42;;;;;;;;;;13078193;22;20019;-75
2022/11/13 17:57:04;;;;;;;40.00;21.20;;;;;;;;;;13114905;22;20033;-72
2022/11/13 18:02:04;;;;;;;43.45;21.50;;;;;;;;;;13077365;22;19998;-72
2022/11/13 18:07:05;;;;;;;51.10;22.60;;;;;;;;;;13078581;22;19991;-75
2022/11/13 18:12:06;;;;;;;52.35;23.48;;;;;;;;;;13077729;22;19990;-75
2022/11/13 18:17:06;;;;;;;57.03;26.98;;;;;;;;;;13076724;22;20039;-73
2022/11/13 18:22:06;;;;;;;59.45;28.83;;;;;;;;;;13074164;22;20457;-73
2022/11/13 18:27:06;;;;;;;48.50;24.60;;;;;;;;;;13074776;22;19995;-74
2022/11/13 18:32:06;;;;;;;56.90;23.83;;;;;;;;;;13075337;22;19987;-73
2022/11/13 18:37:07;;;;;;;44.40;21.48;;;;;;;;;;13073934;22;20022;-75
2022/11/13 18:42:07;;;;;;;41.22;20.92;;;;;;;;;;13123279;22;19990;-74
2022/11/13 18:47:07;;;;;;;45.83;21.38;;;;;;;;;;13123833;22;20189;-75
2022/11/13 18:52:08;;;;;;;44.40;20.27;;;;;;;;;;13123221;22;20003;-75
2022/11/13 18:57:08;;;;;;;39.38;18.73;;;;;;;;;;13074430;22;20034;-74
2022/11/13 19:02:09;;;;;;;43.22;19.92;;;;;;;;;;13077099;22;20089;-73
2022/11/13 19:07:10;;;;;;;39.40;18.23;;;;;;;;;;13076531;22;20002;-75
2022/11/13 19:12:11;;;;;;;40.60;18.70;;;;;;;;;;13076982;22;20514;-74
2022/11/13 19:17:11;;;;;;;44.00;21.87;;;;;;;;;;13076561;22;20080;-74
2022/11/13 19:22:11;;;;;;;46.28;21.88;;;;;;;;;;13126181;22;19991;-74
2022/11/13 19:27:12;;;;;;;48.53;21.88;;;;;;;;;;13076203;22;19991;-74
2022/11/13 19:32:12;;;;;;;45.90;21.20;;;;;;;;;;13075981;22;19991;-72
2022/11/13 19:37:12;;;;;;;47.35;23.60;;;;;;;;;;13127198;22;20081;-73
2022/11/13 19:42:12;;;;;;;56.67;27.63;;;;;;;;;;13137872;22;19995;-75
2022/11/13 19:47:13;;;;;;;58.70;26.83;;;;;;;;;;13118436;22;19990;-75
2022/11/13 19:52:13;;;;;;;61.63;28.27;;;;;;;;;;13097307;22;20011;-74
2022/11/13 19:57:13;;;;;;;61.53;28.83;;;;;;;;;;13083199;22;20015;-73
2022/11/13 20:02:13;;;;;;;61.78;30.65;;;;;;;;;;13077603;22;19995;-74
2022/11/13 20:07:14;;;;;;;58.08;29.63;;;;;;;;;;13126469;22;19987;-75
2022/11/13 20:12:14;;;;;;;68.72;28.75;;;;;;;;;;13075968;22;20075;-76
2022/11/13 20:17:15;;;;;;;58.47;27.67;;;;;;;;;;13051432;22;20405;-74
2022/11/13 20:22:15;;;;;;;61.40;31.60;;;;;;;;;;13049654;22;20018;-74
2022/11/13 20:27:16;;;;;;;67.75;29.58;;;;;;;;;;13078546;22;20006;-74
2022/11/13 20:32:16;;;;;;;48.17;26.40;;;;;;;;;;13079979;22;20026;-79
2022/11/13 20:37:16;;;;;;;74.63;28.17;;;;;;;;;;13079687;22;20009;-77
2022/11/13 20:42:16;;;;;;;61.20;30.02;;;;;;;;;;13079362;22;20014;-75
2022/11/13 20:47:17;;;;;;;55.03;26.37;;;;;;;;;;13079830;22;19994;-75
2022/11/13 20:52:17;;;;;;;66.10;28.58;;;;;;;;;;13079380;22;20240;-74
2022/11/13 20:57:20;;;;;;;57.92;26.52;;;;;;;;;;13079032;22;20041;-75
2022/11/13 21:02:21;;;;;;;58.13;28.73;;;;;;;;;;13079386;22;19991;-76
2022/11/13 21:07:21;;;;;;;60.35;26.30;;;;;;;;;;13079236;22;20425;-74
2022/11/13 21:12:21;;;;;;;68.32;29.45;;;;;;;;;;13079812;22;20029;-74
2022/11/13 21:17:22;;;;;;;58.83;27.65;;;;;;;;;;13079260;22;19995;-75
2022/11/13 21:22:22;;;;;;;58.40;27.08;;;;;;;;;;13079320;22;19987;-77
2022/11/13 21:27:22;;;;;;;60.45;27.25;;;;;;;;;;13078612;22;19994;-74
2022/11/13 21:32:22;;;;;;;58.53;26.50;;;;;;;;;;13079011;22;19990;-74
2022/11/13 21:37:23;;;;;;;67.07;30.40;;;;;;;;;;13078354;22;20029;-73
2022/11/13 21:42:23;;;;;;;61.03;28.58;;;;;;;;;;13078586;22;19990;-77
2022/11/13 21:47:23;;;;;;;58.80;25.48;;;;;;;;;;13078719;22;20091;-75
2022/11/13 21:52:24;;;;;;;58.08;26.08;;;;;;;;;;13080872;22;19994;-74
2022/11/13 21:57:25;;;;;;;62.83;25.77;;;;;;;;;;13090575;22;20006;-75
2022/11/13 22:02:26;;;;;;;61.45;25.23;;;;;;;;;;13145739;22;20022;-74
2022/11/13 22:07:26;;;;;;;53.70;24.98;;;;;;;;;;13082668;22;20014;-77
2022/11/13 22:12:26;;;;;;;56.28;25.90;;;;;;;;;;13078522;22;20001;-74
2022/11/13 22:17:26;;;;;;;61.85;26.65;;;;;;;;;;13078489;22;19994;-74
2022/11/13 22:22:27;;;;;;;57.20;24.98;;;;;;;;;;13127453;22;20019;-75
2022/11/13 22:27:27;;;;;;;32.15;15.90;;;;;;;;;;13077675;22;20014;-73
2022/11/13 22:32:29;;;;;;;47.70;21.23;;;;;;;;;;13077715;22;20507;-74
2022/11/13 22:37:30;;;;;;;37.08;17.50;;;;;;;;;;13077249;22;19999;-75
2022/11/13 22:42:30;;;;;;;38.70;18.05;;;;;;;;;;13077620;22;19994;-75
2022/11/13 22:47:31;;;;;;;39.40;16.65;;;;;;;;;;13077500;22;19994;-75
2022/11/13 22:52:31;;;;;;;37.45;16.98;;;;;;;;;;13077397;22;20366;-73
2022/11/13 22:57:31;;;;;;;31.73;16.42;;;;;;;;;;13110975;22;20039;-74
2022/11/13 23:02:31;;;;;;;32.78;16.38;;;;;;;;;;13051771;22;19990;-75
2022/11/13 23:07:32;;;;;;;23.70;12.48;;;;;;;;;;13076999;22;20040;-75
2022/11/13 23:12:32;;;;;;;31.50;13.60;;;;;;;;;;13126295;22;20132;-76
2022/11/13 23:17:32;;;;;;;21.98;11.93;;;;;;;;;;13126715;22;20048;-75
2022/11/13 23:22:32;;;;;;;28.70;14.00;;;;;;;;;;13077213;22;20018;-73
2022/11/13 23:27:33;;;;;;;23.42;11.02;;;;;;;;;;13076968;22;19998;-75
2022/11/13 23:32:33;;;;;;;21.02;10.57;;;;;;;;;;13126381;22;19990;-72
2022/11/13 23:37:33;;;;;;;24.67;12.63;;;;;;;;;;13051577;22;20349;-73
2022/11/13 23:42:34;;;;;;;24.53;10.53;;;;;;;;;;13076605;22;20018;-74
2022/11/13 23:47:34;;;;;;;25.05;12.23;;;;;;;;;;13077042;22;19994;-73
2022/11/13 23:52:34;;;;;;;26.70;13.23;;;;;;;;;;13076294;22;20544;-73
2022/11/13 23:57:35;;;;;;;25.55;12.35;;;;;;;;;;13112223;22;20490;-73
